• Join FlightAware (Why Join?)
  • Login
  • US Flag 
12:59PM EDT


 

Airport Tracker/Info


-or-


 

Live Flight TrackerFlight Track Log ✈ N946RM ✈ 20-Mar-2014 ✈ KTPA - KBHM

Flight Track Log - Related Links

Times and Time Zones

All times are in EDT time to prevent confusion due to time zone crossing. See the N946RM flight status page for this flight to view local times or setup timezone preferences in your user account.

Time Position Orientation Groundspeed Altitude Reporting Facility
EDT Latitude Longitude Course Direction KTS MPH feet Rate Location/Type
03:23PM 27.9833 -82.5500 214° Southwest 132 152 800  Level Tampa TRACON
03:24PM 27.9167 -82.6000 214° Southwest 242 278 6,300 3,720 Climbing Tampa TRACON
03:25PM 27.9000 -82.6667 254° West 241 277 10,100 3,000 Climbing Tampa TRACON
03:26PM 27.9333 -82.7167 307° West 267 307 12,000 1,260 Climbing Tampa TRACON
03:29PM 28.1269 -82.7561 350° North 303 349 14,200 1,260 Climbing Jacksonville Center
03:30PM 28.2144 -82.7653 355° North 303 349 16,200 1,920 Climbing Jacksonville Center
03:31PM 28.3042 -82.7769 353° North 308 354 18,100 1,920 Climbing Jacksonville Center
03:32PM 28.3858 -82.8172 337° Northwest 309 356 20,100 1,980 Climbing Jacksonville Center
03:33PM 28.4714 -82.8500 341° North 314 361 22,100 2,040 Climbing Jacksonville Center
03:34PM 28.5631 -82.8619 353° North 319 367 24,200 2,040 Climbing Jacksonville Center
03:35PM 28.6550 -82.8714 355° North 325 374 26,200 1,920 Climbing Jacksonville Center
03:36PM 28.7447 -82.8831 353° North 325 374 28,100 1,920 Climbing Jacksonville Center
03:37PM 28.8344 -82.8925 355° North 330 380 30,100 1,980 Climbing Jacksonville Center
03:38PM 28.9181 -82.9069 351° North 322 371 32,100 1,860 Climbing Jacksonville Center
03:39PM 28.9783 -82.9542 326° Northwest 282 325 33,900 900 Climbing Jacksonville Center
03:40PM 29.0453 -83.0089 324° Northwest 280 322 34,000 300 Climbing Jacksonville Center
03:41PM 29.1203 -83.0686 325° Northwest 305 351 34,500 720 Climbing Jacksonville Center
03:42PM 29.1953 -83.1281 325° Northwest 320 368 35,500 960 Climbing Jacksonville Center
03:43PM 29.2683 -83.1878 325° Northwest 325 374 36,500 960 Climbing Jacksonville Center
03:44PM 29.3411 -83.2475 324° Northwest 325 374 37,500 960 Climbing Jacksonville Center
03:45PM 29.4119 -83.3050 325° Northwest 319 367 38,500 960 Climbing Jacksonville Center
03:46PM 29.4847 -83.3603 327° Northwest 319 367 39,500 720 Climbing Jacksonville Center
03:47PM 29.5556 -83.4153 326° Northwest 314 361 40,000 240 Climbing Jacksonville Center
03:48PM 29.6283 -83.4756 324° Northwest 314 361 40,000  Level Jacksonville Center
03:49PM 29.7053 -83.5381 325° Northwest 319 367 40,000  Level Jacksonville Center
03:50PM 29.7803 -83.5986 325° Northwest 319 367 40,000  Level Jacksonville Center
03:51PM 29.8550 -83.6567 326° Northwest 329 379 40,000  Level Jacksonville Center
03:52PM 29.9319 -83.7194 325° Northwest 334 384 40,000  Level Jacksonville Center
03:53PM 30.0067 -83.7800 325° Northwest 334 384 40,000  Level Jacksonville Center
03:54PM 30.0792 -83.8383 325° Northwest 334 384 40,000  Level Jacksonville Center
03:55PM 30.1539 -83.8992 325° Northwest 334 384 40,000  Level Jacksonville Center
03:56PM 30.2225 -83.9575 324° Northwest 327 376 40,000  Level Jacksonville Center
03:57PM 30.2950 -84.0186 324° Northwest 327 376 40,000  Level Jacksonville Center
03:58PM 30.3697 -84.0747 327° Northwest 322 371 40,000  Level Jacksonville Center
03:59PM 30.4381 -84.1333 324° Northwest 316 364 40,000  Level Jacksonville Center
04:00PM 30.5106 -84.1897 326° Northwest 311 358 40,000  Level Jacksonville Center
04:01PM 30.5725 -84.2414 324° Northwest 311 358 40,000  Level Jacksonville Center
04:02PM 30.6428 -84.3003 324° Northwest 306 352 40,000  Level Jacksonville Center
04:03PM 30.7133 -84.3617 323° Northwest 311 358 40,000  Level Jacksonville Center
04:04PM 30.7878 -84.4208 326° Northwest 311 358 40,000  Level Jacksonville Center
04:05PM 30.8581 -84.4778 325° Northwest 311 358 40,000  Level Jacksonville Center
04:06PM 30.9303 -84.5394 324° Northwest 311 358 40,000  Level Jacksonville Center
04:07PM 31.0025 -84.6014 324° Northwest 311 358 40,000  Level Jacksonville Center
04:08PM 31.0769 -84.6633 325° Northwest 316 364 40,000 -480 Level Jacksonville Center
04:09PM 31.1511 -84.7231 325° Northwest 316 364 39,100 -1,680 Descending Jacksonville Center
04:10PM 31.2953 -84.8431 325° Northwest 305 351 35,100 -1,740 Descending Atlanta Center
04:11PM 31.3658 -84.9047 323° Northwest 310 357 34,000 -600 Descending Atlanta Center
04:12PM 31.4383 -84.9661 324° Northwest 310 357 34,000  Level Atlanta Center
04:13PM 31.5089 -85.0253 324° Northwest 315 362 34,000  Level Atlanta Center
04:14PM 31.5836 -85.0872 325° Northwest 315 362 34,000  Level Atlanta Center
04:15PM 31.6542 -85.1442 326° Northwest 315 362 34,000  Level Atlanta Center
04:16PM 31.7286 -85.2058 325° Northwest 315 362 34,000  Level Atlanta Center
04:17PM 31.7989 -85.2681 323° Northwest 315 362 34,000  Level Atlanta Center
04:18PM 31.8736 -85.3278 326° Northwest 315 362 34,000  Level Atlanta Center
04:19PM 31.9458 -85.3900 324° Northwest 315 362 34,000 -480 Level Atlanta Center
04:20PM 32.0183 -85.4497 325° Northwest 315 362 33,100 -960 Descending Atlanta Center
04:21PM 32.0925 -85.5147 323° Northwest 315 362 32,100 -1,020 Descending Atlanta Center
04:22PM 32.1692 -85.5822 323° Northwest 325 374 31,100 -1,020 Descending Atlanta Center
04:23PM 32.2494 -85.6500 324° Northwest 344 396 30,100 -1,020 Descending Atlanta Center
04:24PM 32.3281 -85.7178 324° Northwest 350 403 29,100 -1,080 Descending Atlanta Center
04:25PM 32.4064 -85.7881 323° Northwest 350 403 28,000 -1,080 Descending Atlanta Center
04:26PM 32.4889 -85.8536 326° Northwest 350 403 27,000 -960 Descending Atlanta Center
04:27PM 32.5631 -85.9217 322° Northwest 350 403 26,100 -960 Descending Atlanta Center
04:28PM 32.6331 -85.9800 325° Northwest 350 403 25,100 -1,020 Descending Atlanta Center
04:29PM 32.7072 -86.0433 324° Northwest 344 396 24,100 -1,020 Descending Atlanta Center
04:30PM 32.7792 -86.1067 323° Northwest 333 383 23,100 -1,020 Descending Atlanta Center
04:31PM 32.8283 -86.1550 320° Northwest 319 367 22,500 -1,020 Descending Atlanta Center
04:31PM 32.8511 -86.1703 331° Northwest 333 383 22,100 -1,440 Descending Atlanta Center
04:32PM 32.9067 -86.2236 321° Northwest 326 375 21,100 -1,500 Descending Atlanta Center
04:32PM 32.9253 -86.2364 330° Northwest 333 383 20,600 -1,980 Descending Atlanta Center
04:33PM 32.9764 -86.2872 320° Northwest 319 367 19,100 -1,920 Descending Atlanta Center
04:33PM 32.9931 -86.2975 333° Northwest 326 375 18,700 -1,920 Descending Atlanta Center
04:34PM 33.0422 -86.3458 321° Northwest 302 348 17,200 -1,920 Descending Atlanta Center
04:34PM 33.0628 -86.3564 337° Northwest 319 367 16,800 -2,100 Descending Atlanta Center
04:35PM 33.1292 -86.3806 343° North 327 376 15,100 -2,340 Descending Atlanta Center
04:35PM 33.1519 -86.3836 354° North 314 361 14,500 -2,220 Descending Atlanta Center
04:36PM 33.2078 -86.4147 335° Northwest 299 344 12,900 -2,100 Descending Atlanta Center
04:36PM 33.2242 -86.4253 332° Northwest 308 354 12,400 -1,980 Descending Atlanta Center
04:37PM 33.2714 -86.4761 318° Northwest 337 388 10,900 -1,920 Descending Atlanta Center
04:37PM 33.2878 -86.4867 332° Northwest 294 338 10,500 -1,800 Descending Atlanta Center
04:38PM 33.3328 -86.5375 317° Northwest 290 334 9,100 -2,040 Descending Atlanta Center
04:38PM 33.3553 -86.5506 334° Northwest 289 333 8,500 -1,920 Descending Atlanta Center
04:39PM 33.3983 -86.5942 320° Northwest 308 354 7,200 -1,800 Descending Atlanta Center
04:39PM 33.4106 -86.6069 319° Northwest 277 319 6,700 -1,920 Descending Atlanta Center
04:40PM 33.4492 -86.6531 315° West 237 273 5,100 -1,740 Descending Atlanta Center
04:40PM 33.4575 -86.6606 323° Northwest 254 292 5,000 -900 Descending Atlanta Center
04:41PM 33.4836 -86.7039 306° West 190 219 4,200 -1,320 Descending Atlanta Center
04:42PM 33.5122 -86.7369 316° Northwest 108 124 2,500 -1,500 Descending Atlanta Center
04:43PM 33.5411 -86.7506 339° North 116 133 1,100 -1,440 Descending Atlanta Center
04:45PM 33.5639 -86.7523 312° West  Level Estimated
04:52PM 33.5639 -86.7523 140° Southeast  Level Estimated